Latest Weather Observations for Lochington

IDQ60801

Issued at 5:05 pm EST Wednesday 16 April 2014 (issued every 30 minutes, with the page automatically refreshed every 10 minutes)

About weather observations | Map of weather stations | Latest weather observations for QLD | Other Formats
Station Details ID: 035139 Name: LOCHINGTON Lat: -23.94 Lon: 147.53 Height: 267.19 m
Data from the previous 72 hours. | See also: Recent months at Lochington
Date/Time
EST
Temp
°C
App
Temp
°C
Dew
Point
Rel
Hum
%
Delta-T
°C
Wind Press
QNH
hPa
Press
MSL
hPa
Rain
since 9 am
mm
Dir
 
Spd
km/h
Gust
km/h
Spd
kts
Gust
kts
16/05:00pm 30.3 29.1 10.3 29 11.5 SSW 7 13 4 7 1012.9 1011.6 0.0
16/04:30pm 29.8 28.1 9.9 29 11.4 S 9 15 5 8 1012.7 - 0.0
16/04:00pm 31.6 29.6 10.3 27 12.3 SSW 11 19 6 10 1012.7 1011.4 0.0
16/03:30pm 31.8 29.7 9.9 26 12.6 W 11 22 6 12 1012.8 - 0.0
16/03:00pm 32.3 31.3 10.9 27 12.5 W 7 11 4 6 1012.9 1011.6 0.0
16/02:30pm 31.2 29.8 9.4 26 12.4 W 7 17 4 9 1013.2 - 0.0
16/02:00pm 31.2 30.1 10.5 28 12.0 S 7 15 4 8 1013.2 1011.9 0.0
16/01:30pm 31.1 29.5 11.5 30 11.5 WNW 11 15 6 8 1013.6 - 0.0
16/01:00pm 29.0 28.7 12.8 36 9.6 WSW 6 11 3 6 1014.3 1013.1 0.0
16/12:30pm 29.8 30.3 15.1 40 9.1 WNW 6 11 3 6 1014.6 - 0.0
16/12:00pm 29.0 29.6 15.9 45 8.2 NW 7 13 4 7 1015.1 1013.9 0.0
16/11:30am 28.2 29.3 17.1 51 7.0 WNW 7 15 4 8 1015.9 - 0.0
16/11:00am 26.9 28.0 16.5 53 6.5 W 6 9 3 5 1016.5 1015.2 0.0
16/10:30am 26.5 27.6 17.0 56 6.0 NNE 7 13 4 7 1016.9 - 0.0
16/10:00am 25.8 27.3 17.7 61 5.1 W 6 9 3 5 1017.2 1016.0 0.0
16/09:30am 24.4 25.8 17.4 65 4.4 NNE 6 15 3 8 1017.4 - 0.0
16/09:00am 23.8 25.6 17.5 68 4.0 ENE 4 9 2 5 1017.4 1016.2 0.0
16/08:30am 22.8 24.3 17.5 72 3.3 E 6 13 3 7 1017.3 - 0.0
16/08:00am 20.8 22.7 16.6 77 2.6 E 2 6 1 3 1017.1 1015.9 0.0
16/07:30am 19.3 21.4 16.3 83 1.8 CALM 0 0 0 0 1016.9 - 0.0
16/07:00am 18.0 20.1 16.3 90 1.0 CALM 0 0 0 0 1016.4 1015.1 0.0
16/06:30am 17.5 19.0 15.8 90 1.0 E 2 2 1 1 1016.0 - 0.0
16/06:00am 17.7 19.8 16.2 91 0.9 CALM 0 0 0 0 1015.6 1014.4 0.0
16/05:30am 18.3 20.4 16.3 88 1.2 CALM 0 0 0 0 1015.6 - 0.0
16/05:00am 18.4 20.7 16.7 90 1.0 CALM 0 4 0 2 1015.3 1014.1 0.0
16/04:30am 18.0 20.1 16.3 90 1.0 CALM 0 4 0 2 1015.0 - 0.0
16/04:00am 17.8 19.5 16.1 90 1.0 WSW 2 4 1 2 1014.8 1013.6 0.0
16/03:30am 18.0 19.7 16.2 89 1.1 SSW 2 4 1 2 1014.8 - 0.0
16/03:00am 18.2 19.4 16.0 87 1.3 W 4 6 2 3 1014.9 1013.7 0.0
16/02:30am 19.0 20.5 16.6 86 1.5 N 4 6 2 3 1014.4 - 0.0
16/02:00am 19.5 20.6 16.5 83 1.8 S 6 6 3 3 1015.2 1014.0 0.0
16/01:30am 20.2 21.4 16.8 81 2.1 NE 6 7 3 4 1015.1 - 0.0
16/01:00am 20.4 22.3 16.6 79 2.3 NE 2 4 1 2 1015.5 1014.3 0.0
16/12:30am 20.4 21.4 16.4 78 2.4 N 6 7 3 4 1015.6 - 0.0
16/12:00am 20.9 22.3 16.3 75 2.8 NNE 4 6 2 3 1015.7 1014.5 0.0
 
Date/Time
EST
Temp
°C
App
Temp
°C
Dew
Point
Rel
Hum
%
Delta-T
°C
Wind Press
QNH
hPa
Press
MSL
hPa
Rain
since 9 am
mm
Dir
 
Spd
km/h
Gust
km/h
Spd
kts
Gust
kts
15/11:30pm 21.0 22.4 16.4 75 2.8 NE 4 6 2 3 1015.7 - 0.0
15/11:00pm 20.8 21.7 16.2 75 2.8 E 6 7 3 4 1015.8 1014.6 0.0
15/10:30pm 20.5 21.5 16.3 77 2.6 E 6 9 3 5 1016.0 - 0.0
15/10:00pm 20.5 20.8 16.1 76 2.7 E 9 13 5 7 1015.7 1014.5 0.0
15/09:30pm 21.1 20.6 15.9 72 3.2 ESE 13 17 7 9 1015.7 - 0.0
15/09:00pm 22.2 21.8 16.2 69 3.7 ESE 13 19 7 10 1015.4 1014.2 0.0
15/08:30pm 22.3 24.1 17.4 74 3.1 SSW 4 6 2 3 1015.1 - 0.0
15/08:00pm 23.0 25.7 17.7 72 3.3 CALM 0 0 0 0 1014.5 1013.3 0.0
15/07:30pm 23.2 24.9 17.2 69 3.7 SSW 4 6 2 3 1014.2 - 0.0
15/07:00pm 23.9 25.7 17.4 67 4.1 WSW 4 6 2 3 1013.7 1012.5 0.0
15/06:30pm 24.0 25.6 16.8 64 4.5 NW 4 6 2 3 1013.4 - 0.0
15/06:00pm 25.1 26.3 16.0 57 5.6 S 4 7 2 4 1013.1 1011.8 0.0
15/05:30pm 27.9 28.9 14.2 43 8.3 NE 2 6 1 3 1013.0 - 0.0
15/05:00pm 28.3 28.4 13.8 41 8.7 ENE 6 7 3 4 1012.4 1011.1 0.0
15/04:30pm 28.9 28.7 13.6 39 9.2 ENE 7 13 4 7 1012.1 - 0.0
15/04:00pm 29.3 28.7 13.5 38 9.5 ENE 9 15 5 8 1012.0 1010.8 0.0
15/03:30pm 30.6 30.6 14.3 37 10.0 NNE 7 15 4 8 1012.1 - 0.0
15/03:00pm 30.6 30.5 13.4 35 10.4 NE 6 17 3 9 1012.5 1011.2 0.0
15/02:30pm 29.5 29.0 13.7 38 9.6 N 9 17 5 9 1012.9 - 0.0
15/02:00pm 29.8 29.2 13.5 36 9.8 NW 9 15 5 8 1013.1 1011.8 0.0
15/01:30pm 29.0 28.2 14.0 39 9.1 ENE 11 20 6 11 1013.3 - 0.0
15/01:00pm 29.1 29.2 15.6 44 8.4 NNE 9 17 5 9 1013.6 1012.3 0.0
15/12:30pm 28.2 27.9 15.5 46 7.9 NNE 11 22 6 12 1014.2 - 0.0
15/12:00pm 27.7 27.5 15.7 48 7.4 ENE 11 19 6 10 1014.7 1013.5 0.0
15/11:30am 27.6 28.2 15.9 49 7.3 ENE 7 15 4 8 1015.0 - 0.0
15/11:00am 26.7 27.0 16.0 52 6.6 E 9 17 5 9 1015.5 1014.3 0.0
15/10:30am 26.0 26.7 16.0 54 6.2 NE 7 13 4 7 1015.9 - 0.0
15/10:00am 25.9 26.1 16.7 57 5.7 E 11 17 6 9 1016.2 1014.9 0.0
15/09:30am 24.2 23.3 15.9 59 5.1 ENE 15 24 8 13 1016.4 - 0.0
15/09:00am 23.2 23.0 15.8 63 4.5 ENE 11 17 6 9 1016.5 1015.2 0.0
15/08:30am 22.5 23.5 16.8 70 3.5 E 7 11 4 6 1016.3 - 0.0
15/08:00am 21.4 23.0 16.8 75 2.8 E 4 7 2 4 1016.2 1014.9 0.0
15/07:30am 19.6 21.0 16.4 82 1.9 N 4 6 2 3 1015.8 - 0.0
15/07:00am 18.6 20.1 16.6 88 1.2 NNE 4 6 2 3 1015.4 1014.2 0.0
15/06:30am 16.7 18.1 15.4 92 0.8 NE 2 4 1 2 1015.3 - 0.0
15/06:00am 17.0 19.0 15.9 93 0.7 CALM 0 0 0 0 1015.0 1013.8 0.0
15/05:30am 17.4 19.2 15.4 88 1.2 CALM 0 2 0 1 1015.0 - 0.0
15/05:00am 18.6 19.9 16.2 86 1.4 ENE 4 6 2 3 1014.7 1013.5 0.0
15/04:30am 18.7 20.2 16.7 88 1.2 ENE 4 7 2 4 1014.5 - 0.0
15/04:00am 18.3 20.5 16.5 89 1.1 CALM 0 0 0 0 1014.4 1013.2 0.0
15/03:30am 18.9 21.1 16.5 86 1.5 CALM 0 2 0 1 1014.4 - 0.0
15/03:00am 19.1 21.5 16.9 87 1.3 CALM 0 2 0 1 1014.4 1013.2 0.0
15/02:30am 19.1 20.6 16.7 86 1.5 ESE 4 7 2 4 1014.4 - 0.0
15/02:00am 19.2 20.3 16.6 85 1.6 ESE 6 7 3 4 1014.4 1013.2 0.0
15/01:30am 19.4 21.3 16.6 84 1.7 ESE 2 6 1 3 1014.6 - 0.0
15/01:00am 19.7 21.2 16.7 83 1.8 E 4 6 2 3 1014.5 1013.3 0.0
15/12:30am 19.8 21.4 16.8 83 1.8 E 4 7 2 4 1014.4 - 0.0
15/12:00am 19.7 21.5 16.5 82 1.9 ENE 2 4 1 2 1014.4 1013.2 0.0
 
Date/Time
EST
Temp
°C
App
Temp
°C
Dew
Point
Rel
Hum
%
Delta-T
°C
Wind Press
QNH
hPa
Press
MSL
hPa
Rain
since 9 am
mm
Dir
 
Spd
km/h
Gust
km/h
Spd
kts
Gust
kts
14/11:30pm 20.4 21.2 16.4 78 2.4 E 7 9 4 5 1014.3 - 0.0
14/11:00pm 20.7 21.6 16.5 77 2.6 E 7 9 4 5 1014.4 1013.2 0.0
14/10:30pm 21.5 22.4 16.7 74 3.0 E 7 9 4 5 1014.5 - 0.0
14/10:00pm 22.3 22.1 16.8 71 3.4 ESE 13 19 7 10 1014.2 1013.0 0.0
14/09:30pm 22.3 23.1 17.4 74 3.1 E 9 15 5 8 1014.0 - 0.0
14/09:00pm 21.9 22.9 16.8 73 3.1 ESE 7 9 4 5 1013.9 1012.7 0.0
14/08:30pm 22.8 23.8 16.8 69 3.7 E 7 9 4 5 1013.8 - 0.0
14/08:00pm 23.7 24.6 16.5 64 4.5 E 7 11 4 6 1013.1 1011.8 0.0
14/07:30pm 23.6 24.4 15.9 62 4.7 E 6 13 3 7 1012.5 - 0.0
14/07:00pm 25.4 26.5 15.7 55 6.0 N 4 6 2 3 1011.8 1010.6 0.0
14/06:30pm 27.1 27.4 13.4 42 8.2 NNE 4 6 2 3 1011.5 - 0.0
14/06:00pm 27.4 27.1 12.6 40 8.7 WSW 6 11 3 6 1011.0 1009.8 0.0
14/05:30pm 28.9 28.4 11.9 35 10.0 S 6 15 3 8 1010.6 - 0.0
14/05:00pm 30.2 29.9 12.6 34 10.5 WSW 6 9 3 5 1010.3 1009.0 0.0
14/04:30pm 29.6 29.1 12.5 35 10.2 S 7 17 4 9 1010.4 - 0.0
14/04:00pm 29.4 28.9 12.8 36 9.9 W 7 13 4 7 1010.3 1009.0 0.0
14/03:30pm 30.6 29.6 13.4 35 10.4 W 11 19 6 10 1010.2 - 0.0
14/03:00pm 30.5 29.8 13.3 35 10.4 SSW 9 15 5 8 1010.0 1008.7 0.0
14/02:30pm 28.6 28.4 12.9 38 9.3 SSW 6 9 3 5 1010.2 - 0.0
14/02:00pm 29.1 29.3 14.1 40 9.1 S 6 11 3 6 1010.1 1008.8 0.0
14/01:30pm 29.8 29.7 14.0 38 9.6 SE 7 15 4 8 1010.2 - 0.0
14/01:00pm 28.2 28.3 14.4 42 8.4 S 7 15 4 8 1010.6 1009.4 0.0
14/12:30pm 28.3 27.9 16.2 47 7.6 SE 13 22 7 12 1011.2 - 0.0
14/12:00pm 28.0 27.4 15.6 46 7.7 ESE 13 20 7 11 1011.9 1010.7 0.0
14/11:30am 27.1 26.8 15.5 49 7.1 SE 11 17 6 9 1012.4 - 0.0
14/11:00am 25.3 25.4 16.4 57 5.5 ESE 11 15 6 8 1012.9 1011.6 0.0
14/10:30am 26.0 25.7 16.5 55 5.9 SE 13 19 7 10 1013.0 - 0.0
14/10:00am 26.0 26.1 16.5 55 5.9 SE 11 20 6 11 1013.1 1011.8 0.0
14/09:30am 24.0 25.7 18.4 71 3.6 SSW 7 11 4 6 1012.9 - 0.0
14/09:00am 22.6 24.0 18.6 78 2.5 SW 9 15 5 8 1012.8 1011.5 5.0
14/08:30am 21.7 23.0 18.5 82 2.0 SSW 9 15 5 8 1012.5 - 5.0
14/08:00am 20.2 21.7 18.0 87 1.4 SSW 7 13 4 7 1012.3 1011.0 5.0
14/07:30am 19.2 20.7 17.5 90 1.1 SSW 6 9 3 5 1011.8 - 5.0
14/07:00am 17.8 19.7 16.7 93 0.7 W 2 4 1 2 1011.3 1010.1 5.0
14/06:30am 17.7 19.2 16.6 93 0.7 SW 4 6 2 3 1010.9 - 5.0
14/06:00am 17.9 20.2 16.8 93 0.7 CALM 0 4 0 2 1010.7 1009.5 5.0
14/05:30am 18.0 19.6 16.9 93 0.7 SW 4 6 2 3 1010.4 - 5.0
14/05:00am 18.5 20.2 17.2 92 0.8 SSW 4 6 2 3 1010.2 1008.9 5.0
14/04:30am 18.5 20.6 17.2 92 0.8 SSW 2 4 1 2 1010.1 - 5.0
14/04:00am 18.6 21.1 17.3 92 0.8 CALM 0 0 0 0 1010.0 1008.7 5.0
14/03:30am 19.1 20.9 17.4 90 1.0 S 4 7 2 4 1009.9 - 5.0
14/03:00am 19.0 20.4 17.3 90 1.0 SE 6 7 3 4 1010.0 1008.7 5.0
14/02:30am 19.6 21.1 17.6 88 1.2 SE 6 6 3 3 1010.3 - 5.0
14/02:00am 20.1 22.1 17.9 87 1.4 S 4 7 2 4 1010.6 1009.4 5.0
14/01:30am 20.3 21.9 17.9 86 1.5 SE 6 7 3 4 1010.9 - 4.8
14/01:00am 20.9 22.5 18.3 85 1.6 SE 7 11 4 6 1011.3 1010.1 4.8
14/12:30am 21.1 22.7 18.3 84 1.8 SE 7 13 4 7 1011.5 - 4.8
14/12:00am 21.1 22.4 18.5 85 1.6 SE 9 15 5 8 1011.7 1010.5 4.8
 
Date/Time
EST
Temp
°C
App
Temp
°C
Dew
Point
Rel
Hum
%
Delta-T
°C
Wind Press
QNH
hPa
Press
MSL
hPa
Rain
since 9 am
mm
Dir
 
Spd
km/h
Gust
km/h
Spd
kts
Gust
kts
13/11:30pm 21.1 22.8 18.5 85 1.6 SE 7 15 4 8 1011.8 - 4.8
13/11:00pm 21.1 23.0 18.5 85 1.6 SSE 6 11 3 6 1012.3 1011.0 4.8
13/10:30pm 21.0 22.7 18.4 85 1.6 SE 7 9 4 5 1012.1 - 4.8
13/10:00pm 21.1 23.3 18.3 84 1.8 S 4 6 2 3 1012.3 1011.0 4.8
13/09:30pm 21.1 20.8 18.3 84 1.8 ESE 17 22 9 12 1011.7 - 4.8
13/09:00pm 21.5 22.1 18.5 83 1.9 SE 13 22 7 12 1012.1 1010.9 4.8
13/08:30pm 20.9 23.3 18.7 87 1.4 SW 4 9 2 5 1011.7 - 4.8
13/08:00pm 20.9 21.5 18.5 86 1.5 E 13 20 7 11 1011.0 1009.8 4.8
13/07:30pm 21.0 22.0 18.6 86 1.5 ESE 11 19 6 10 1010.6 - 4.8
13/07:00pm 21.4 24.6 18.8 85 1.7 CALM 0 4 0 2 1011.2 1010.0 4.8
13/06:30pm 21.2 23.3 18.9 87 1.5 SE 6 9 3 5 1011.0 - 4.8
13/06:00pm 21.2 22.0 19.1 88 1.3 ESE 13 19 7 10 1010.3 1009.0 4.8
13/05:30pm 21.3 22.9 19.2 88 1.3 ESE 9 15 5 8 1010.3 - 4.8

Other Formats:

Comma delimited format used in spreadsheet applications
http://www.bom.gov.au/fwo/IDQ60801/IDQ60801.94399.axf

JavaScript Object Notation format (JSON) in row-major order
http://www.bom.gov.au/fwo/IDQ60801/IDQ60801.94399.json